Time;durP1;ratioP1;P1;durP2;ratioP2;P2;SDS_P1;SDS_P2;PMS_P1;PMS_P2;Temp;Humidity;BMP_temperature;BMP_pressure;BME280_temperature;BME280_humidity;BME280_pressure;Samples;Min_cycle;Max_cycle;Signal;HPM_P1;HPM_P2
2022/01/10 05:01:39;;;;;;;46.55;28.00;;;;;;;3.71;61.31;99958.69;5607495;31;81165;-58
2022/01/10 05:04:42;;;;;;;45.55;28.60;;;;;;;3.71;61.31;99958.69;5585411;31;33306;-58
2022/01/10 05:07:45;;;;;;;48.25;28.60;;;;;;;3.25;62.36;99973.91;5584460;32;34489;-58
2022/01/10 05:10:49;;;;;;;44.10;27.90;;;;;;;3.32;62.18;99968.47;5583943;31;34566;-58
2022/01/10 05:13:52;;;;;;;46.10;29.55;;;;;;;3.36;62.25;99973.03;5583412;31;33155;-58
2022/01/10 05:16:55;;;;;;;47.78;30.42;;;;;;;3.45;61.50;99971.56;5583563;32;34226;-58
2022/01/10 05:19:57;;;;;;;49.22;30.65;;;;;;;3.42;61.08;99969.41;5582595;31;32532;-58
2022/01/10 05:22:59;;;;;;;44.47;29.63;;;;;;;3.62;60.80;99978.69;5582091;32;34387;-57
2022/01/10 05:26:01;;;;;;;43.67;29.05;;;;;;;3.65;60.48;99973.72;5582637;31;33958;-58
2022/01/10 05:29:04;;;;;;;40.25;28.40;;;;;;;3.54;61.27;99982.53;5582496;31;34181;-58
2022/01/10 05:32:07;;;;;;;47.30;30.75;;;;;;;3.34;61.60;99983.03;5582957;31;34522;-58
2022/01/10 05:35:10;;;;;;;47.70;30.62;;;;;;;3.41;61.46;99977.56;5583438;31;34601;-58
2022/01/10 05:38:13;;;;;;;41.85;29.23;;;;;;;3.41;60.95;99975.75;5575297;32;34334;-58
2022/01/10 05:41:15;;;;;;;44.13;29.35;;;;;;;3.48;61.19;99980.88;5563913;32;34580;-58
2022/01/10 05:44:18;;;;;;;45.78;30.08;;;;;;;3.38;63.24;99986.00;5564058;32;33791;-58
2022/01/10 05:47:20;;;;;;;47.03;30.73;;;;;;;3.51;61.61;99991.81;5564101;32;33621;-58
2022/01/10 05:50:33;;;;;;;47.72;29.48;;;;;;;3.70;60.58;99987.03;5564345;32;33225;-58
2022/01/10 05:53:37;;;;;;;47.80;31.62;;;;;;;3.76;60.40;99991.34;5563123;32;33166;-58
2022/01/10 05:56:39;;;;;;;50.50;32.20;;;;;;;3.71;60.80;99995.78;5569550;31;33751;-58
2022/01/10 05:59:41;;;;;;;45.80;31.50;;;;;;;3.79;60.43;100002.53;5583660;32;33176;-58
2022/01/10 06:02:44;;;;;;;48.60;31.50;;;;;;;3.85;60.07;99997.03;5583599;31;34416;-58
2022/01/10 06:05:50;;;;;;;45.92;30.27;;;;;;;3.88;60.08;100001.06;5583347;31;34379;-58
2022/01/10 06:08:53;;;;;;;49.92;31.85;;;;;;;3.59;60.79;99998.53;5580868;32;34594;-58
2022/01/10 06:11:56;;;;;;;49.50;33.05;;;;;;;3.74;60.46;100005.88;5574759;32;33903;-58
2022/01/10 06:14:59;;;;;;;51.37;32.63;;;;;;;3.67;61.00;100007.91;5570226;32;33302;-58
2022/01/10 06:18:02;;;;;;;50.03;31.77;;;;;;;3.84;60.62;100013.19;5570318;31;34164;-58
2022/01/10 06:21:04;;;;;;;55.55;32.22;;;;;;;3.61;61.91;100007.06;5570361;32;34362;-58
2022/01/10 06:24:07;;;;;;;55.50;34.75;;;;;;;3.68;63.29;100010.34;5570108;32;33521;-58
2022/01/10 06:27:11;;;;;;;52.08;32.28;;;;;;;3.56;61.40;100009.63;5568547;32;34352;-58
2022/01/10 06:30:14;;;;;;;52.35;33.47;;;;;;;3.65;61.29;100021.41;5567218;32;33247;-58
2022/01/10 06:33:16;;;;;;;56.70;34.08;;;;;;;3.62;62.35;100021.91;5567444;32;33261;-58
2022/01/10 06:36:19;;;;;;;54.00;32.97;;;;;;;3.77;60.94;100026.63;5568612;31;34519;-57
2022/01/10 06:39:22;;;;;;;51.22;35.47;;;;;;;3.61;62.32;100033.56;5568729;31;33386;-58
2022/01/10 06:42:25;;;;;;;55.80;33.88;;;;;;;3.58;63.41;100036.69;5569629;32;33686;-58
2022/01/10 06:45:28;;;;;;;54.63;33.63;;;;;;;3.48;63.22;100036.53;5569891;32;32196;-58
2022/01/10 06:48:31;;;;;;;51.88;33.40;;;;;;;3.62;61.85;100043.13;5569657;32;33291;-58
2022/01/10 06:51:34;;;;;;;51.03;33.25;;;;;;;3.78;67.53;100046.00;5569855;31;33432;-57
2022/01/10 06:54:37;;;;;;;58.72;33.35;;;;;;;3.88;61.97;100051.44;5569560;31;31622;-58
2022/01/10 06:57:39;;;;;;;51.63;33.72;;;;;;;3.78;61.73;100049.44;5569749;32;34262;-58
2022/01/10 07:00:43;;;;;;;52.70;35.08;;;;;;;4.06;63.34;100056.47;5569524;32;33585;-58
2022/01/10 07:03:46;;;;;;;51.80;34.17;;;;;;;4.09;70.77;100063.13;5569850;31;33886;-58
2022/01/10 07:06:50;;;;;;;59.95;37.38;;;;;;;4.12;76.09;100070.59;5569282;32;33261;-58
2022/01/10 07:09:53;;;;;;;57.10;37.20;;;;;;;4.39;59.57;100071.47;5569764;31;33257;-58
2022/01/10 07:12:56;;;;;;;56.30;35.47;;;;;;;4.61;58.10;100074.13;5569988;31;31702;-58
2022/01/10 07:15:58;;;;;;;56.28;36.97;;;;;;;4.64;60.14;100086.91;5568415;32;33298;-58
2022/01/10 07:19:01;;;;;;;61.67;40.65;;;;;;;5.03;65.20;100086.00;5568023;31;34182;-58
2022/01/10 07:22:04;;;;;;;62.13;39.33;;;;;;;4.80;58.68;100085.25;5567563;31;33377;-58
2022/01/10 07:25:07;;;;;;;55.10;37.35;;;;;;;4.72;57.76;100091.78;5567346;31;34753;-58
2022/01/10 07:28:12;;;;;;;57.45;38.83;;;;;;;4.41;61.68;100097.78;5567805;32;33724;-57
2022/01/10 07:31:15;;;;;;;56.37;39.00;;;;;;;4.31;60.04;100100.31;5568384;32;33615;-58
2022/01/10 07:34:27;;;;;;;55.70;38.58;;;;;;;4.77;57.15;100101.69;5567543;32;33751;-58
2022/01/10 07:37:30;;;;;;;61.50;40.80;;;;;;;4.57;56.78;100110.22;5562100;31;34229;-58
2022/01/10 07:40:32;;;;;;;59.33;38.97;;;;;;;4.63;56.29;100109.19;5560477;32;33655;-58
2022/01/10 07:43:35;;;;;;;61.53;39.17;;;;;;;4.48;56.75;100122.28;5562435;32;33698;-58
2022/01/10 07:46:37;;;;;;;60.63;39.05;;;;;;;4.43;59.04;100115.06;5563793;32;33593;-58
2022/01/10 07:49:40;;;;;;;59.17;39.83;;;;;;;4.43;56.53;100116.91;5560062;32;33558;-58
2022/01/10 07:52:43;;;;;;;58.13;39.20;;;;;;;4.46;56.68;100122.53;5569192;32;33534;-58
2022/01/10 07:55:45;;;;;;;62.33;42.20;;;;;;;4.46;58.73;100113.75;5569039;32;33956;-58
2022/01/10 07:58:50;;;;;;;54.65;36.30;;;;;;;4.37;56.62;100118.72;5568875;32;34316;-58
2022/01/10 08:01:53;;;;;;;59.20;38.08;;;;;;;4.74;69.34;100125.28;5568121;32;33801;-58
2022/01/10 08:04:55;;;;;;;61.70;37.97;;;;;;;4.64;56.36;100129.41;5568425;32;33411;-58
2022/01/10 08:07:58;;;;;;;62.35;37.53;;;;;;;4.39;56.92;100126.41;5569499;32;33816;-58
2022/01/10 08:11:00;;;;;;;55.97;37.25;;;;;;;4.60;57.57;100130.97;5555995;32;33730;-58
2022/01/10 08:14:03;;;;;;;58.83;37.38;;;;;;;4.65;56.89;100132.84;5565346;32;33740;-58
2022/01/10 08:17:06;;;;;;;56.75;36.05;;;;;;;4.85;70.11;100125.13;5567652;32;33585;-58
2022/01/10 08:20:09;;;;;;;56.90;37.58;;;;;;;5.47;60.86;100128.44;5569525;32;33522;-58
2022/01/10 08:23:13;;;;;;;61.17;42.25;;;;;;;5.49;56.33;100124.44;5568760;32;33950;-58
2022/01/10 08:26:16;;;;;;;54.30;36.13;;;;;;;5.15;55.85;100127.31;5567808;32;34181;-58
2022/01/10 08:29:19;;;;;;;53.67;34.60;;;;;;;5.00;57.19;100132.47;5566481;32;33667;-58
2022/01/10 08:32:21;;;;;;;50.85;32.58;;;;;;;5.33;56.91;100139.47;5567351;32;33775;-58
2022/01/10 08:35:24;;;;;;;57.72;37.50;;;;;;;5.84;73.43;100139.91;5567718;32;34328;-58
2022/01/10 08:38:26;;;;;;;52.05;35.08;;;;;;;6.20;62.43;100140.19;5568913;32;33863;-58
2022/01/10 08:41:30;;;;;;;56.13;36.80;;;;;;;5.68;60.93;100142.69;5568151;32;33343;-58
2022/01/10 08:44:32;;;;;;;56.75;37.67;;;;;;;5.33;54.27;100143.97;5568464;32;33729;-58
2022/01/10 08:47:35;;;;;;;55.05;36.15;;;;;;;4.62;55.02;100150.06;5568493;32;33581;-58
2022/01/10 08:50:38;;;;;;;49.03;33.90;;;;;;;4.85;54.87;100146.38;5568334;32;34244;-58
2022/01/10 08:53:40;;;;;;;52.33;34.55;;;;;;;5.36;64.22;100160.22;5567222;32;33674;-58
2022/01/10 08:56:42;;;;;;;49.08;33.25;;;;;;;5.90;58.61;100154.06;5568153;32;33656;-58
2022/01/10 08:59:45;;;;;;;46.92;32.58;;;;;;;5.49;54.08;100156.34;5568178;32;33548;-58
2022/01/10 09:02:48;;;;;;;46.72;30.37;;;;;;;6.00;71.74;100161.34;5568367;32;33581;-58
2022/01/10 09:05:50;;;;;;;44.95;30.80;;;;;;;6.11;67.58;100166.47;5568338;32;33806;-57
2022/01/10 09:08:53;;;;;;;47.42;31.10;;;;;;;6.30;53.20;100155.41;5568265;32;33838;-58
2022/01/10 09:11:55;;;;;;;45.38;27.85;;;;;;;6.03;59.21;100164.28;5566450;32;34075;-58
2022/01/10 09:14:58;;;;;;;40.83;28.25;;;;;;;6.43;66.60;100178.94;5567808;32;33418;-58
2022/01/10 09:18:00;;;;;;;48.28;29.98;;;;;;;6.39;51.30;100166.37;5567545;32;33791;-58
2022/01/10 09:21:02;;;;;;;40.30;26.42;;;;;;;5.65;51.93;100167.94;5567891;32;33877;-58
2022/01/10 09:24:05;;;;;;;42.60;28.30;;;;;;;5.89;59.19;100173.72;5566963;32;33543;-58
2022/01/10 09:27:07;;;;;;;40.42;26.48;;;;;;;6.43;56.98;100181.59;5568030;32;33609;-58
2022/01/10 09:30:11;;;;;;;37.45;26.98;;;;;;;6.30;54.49;100177.50;5567913;32;33878;-58
2022/01/10 09:33:14;;;;;;;37.83;25.65;;;;;;;5.88;50.23;100180.09;5566397;32;33190;-58
2022/01/10 09:36:21;;;;;;;34.50;24.12;;;;;;;6.04;63.96;100175.72;5567685;32;33745;-58
2022/01/10 09:39:23;;;;;;;38.72;24.83;;;;;;;6.46;62.11;100172.28;5566636;32;34303;-58
2022/01/10 09:42:26;;;;;;;36.92;23.95;;;;;;;7.27;76.88;100177.16;5557600;32;34235;-58
2022/01/10 09:45:28;;;;;;;41.70;27.40;;;;;;;7.32;66.30;100179.00;5554546;32;34389;-58
2022/01/10 09:48:30;;;;;;;40.53;27.10;;;;;;;7.26;58.76;100170.22;5567925;32;33644;-58
2022/01/10 09:51:53;;;;;;;38.00;25.90;;;;;;;7.15;51.78;100171.25;5570185;32;33619;-58
2022/01/10 09:54:55;;;;;;;35.40;24.70;;;;;;;6.79;53.13;100171.12;5569090;32;34010;-58
2022/01/10 09:57:58;;;;;;;36.65;25.15;;;;;;;6.65;64.79;100176.09;5562310;32;33751;-58
2022/01/10 10:01:02;;;;;;;35.28;23.62;;;;;;;7.17;59.70;100171.78;5550290;32;33735;-58
2022/01/10 10:04:05;;;;;;;37.25;23.58;;;;;;;7.21;56.47;100173.66;5550822;32;33545;-58
2022/01/10 10:07:08;;;;;;;36.22;23.92;;;;;;;7.47;53.09;100179.06;5550829;32;34563;-58
2022/01/10 10:10:12;;;;;;;38.03;23.80;;;;;;;6.82;54.79;100171.41;5569040;32;33400;-58
2022/01/10 10:13:16;;;;;;;34.40;22.85;;;;;;;7.10;60.27;100179.25;5569696;32;34319;-58
2022/01/10 10:16:19;;;;;;;37.65;24.42;;;;;;;6.69;50.44;100174.56;5568415;32;33667;-58
2022/01/10 10:19:24;;;;;;;36.17;24.30;;;;;;;6.86;60.75;100179.69;5563922;32;34436;-58
2022/01/10 10:22:29;;;;;;;36.67;22.83;;;;;;;6.69;51.51;100163.06;5568708;32;34316;-58
2022/01/10 10:25:33;;;;;;;34.20;24.48;;;;;;;6.48;52.17;100170.16;5569273;32;34409;-58
2022/01/10 10:28:36;;;;;;;34.72;23.02;;;;;;;6.23;49.68;100163.63;5568228;32;34031;-58
2022/01/10 10:31:45;;;;;;;36.58;24.10;;;;;;;5.99;52.74;100163.19;5563099;32;34359;-58
2022/01/10 10:34:56;;;;;;;34.92;24.70;;;;;;;6.04;53.41;100171.22;5568369;32;33695;-58
2022/01/10 10:38:02;;;;;;;34.28;22.73;;;;;;;6.28;61.46;100166.31;5563193;32;33651;-58
2022/01/10 10:41:05;;;;;;;33.17;21.62;;;;;;;6.61;54.09;100171.56;5563930;32;34587;-58
2022/01/10 10:44:08;;;;;;;34.90;22.73;;;;;;;6.43;53.58;100167.47;5567802;32;33899;-58
2022/01/10 10:47:12;;;;;;;35.30;23.33;;;;;;;6.16;52.75;100160.41;5568619;32;34026;-58
2022/01/10 10:50:15;;;;;;;30.45;21.55;;;;;;;6.33;55.36;100169.03;5568650;32;33721;-58
2022/01/10 10:53:19;;;;;;;35.00;21.95;;;;;;;6.47;53.68;100172.03;5568035;32;33642;-58
2022/01/10 10:56:21;;;;;;;28.48;19.33;;;;;;;6.58;52.02;100171.00;5568312;32;34332;-58
2022/01/10 10:59:29;;;;;;;28.12;17.80;;;;;;;6.67;51.16;100179.31;5568536;32;33597;-58
2022/01/10 11:02:31;;;;;;;24.70;17.27;;;;;;;6.38;55.45;100160.25;5568643;32;33422;-58
2022/01/10 11:05:33;;;;;;;26.37;18.10;;;;;;;6.60;57.29;100170.78;5568486;32;33775;-58
2022/01/10 11:08:36;;;;;;;26.05;16.60;;;;;;;6.73;48.93;100177.50;5567176;32;34513;-58
2022/01/10 11:11:40;;;;;;;29.95;16.73;;;;;;;6.58;58.06;100171.00;5568164;32;34351;-58
2022/01/10 11:14:42;;;;;;;26.00;16.40;;;;;;;6.86;62.66;100181.56;5561741;32;33575;-58
2022/01/10 11:17:45;;;;;;;24.02;15.40;;;;;;;7.56;66.54;100179.34;5569684;32;33586;-58
2022/01/10 11:20:50;;;;;;;24.40;16.20;;;;;;;7.63;46.95;100179.87;5567930;32;33744;-58
2022/01/10 11:24:07;;;;;;;24.33;16.50;;;;;;;7.79;60.85;100181.50;5567030;32;33659;-58
2022/01/10 11:27:32;;;;;;;21.77;14.18;;;;;;;7.43;48.48;100181.47;5567362;32;34372;-58
2022/01/10 11:30:44;;;;;;;20.58;13.13;;;;;;;7.29;44.21;100178.50;5565318;32;33262;-58
2022/01/10 11:33:47;;;;;;;23.27;12.88;;;;;;;6.78;45.25;100180.97;5562774;32;34416;-58
2022/01/10 11:36:50;;;;;;;19.17;12.05;;;;;;;7.14;55.83;100189.09;5566774;32;33775;-58
2022/01/10 11:39:53;;;;;;;16.67;11.30;;;;;;;7.18;59.82;100194.72;5563587;32;33537;-57
2022/01/10 11:42:58;;;;;;;14.63;10.82;;;;;;;7.62;45.07;100183.63;5567905;32;34458;-58
2022/01/10 11:46:26;;;;;;;15.48;10.95;;;;;;;7.34;42.97;100187.56;5568452;32;33656;-58
2022/01/10 11:49:28;;;;;;;17.45;11.50;;;;;;;7.62;54.78;100200.44;5564585;32;33674;-58
2022/01/10 11:52:31;;;;;;;20.08;12.18;;;;;;;7.63;44.96;100195.91;5567176;32;34302;-58
2022/01/10 11:55:54;;;;;;;19.17;12.05;;;;;;;7.40;43.83;100200.66;5559813;32;33418;-58
2022/01/10 11:59:13;;;;;;;19.30;13.25;;;;;;;7.73;59.78;100206.59;5562020;32;34390;-58
2022/01/10 12:02:23;;;;;;;22.40;13.30;;;;;;;7.84;48.20;100210.84;5555110;32;33810;-58
2022/01/10 12:05:27;;;;;;;20.33;13.38;;;;;;;8.11;45.66;100215.12;5554316;32;33454;-58
2022/01/10 12:08:29;;;;;;;17.75;12.57;;;;;;;8.41;53.13;100219.66;5567599;32;33686;-58
2022/01/10 12:11:32;;;;;;;19.95;13.32;;;;;;;8.43;53.69;100221.00;5563719;32;33673;-58
2022/01/10 12:14:34;;;;;;;19.15;12.55;;;;;;;7.98;41.85;100214.63;5568463;32;33521;-58
2022/01/10 12:17:38;;;;;;;18.65;12.93;;;;;;;7.81;44.59;100218.59;5568445;32;35150;-58
2022/01/10 12:20:40;;;;;;;18.73;12.85;;;;;;;7.90;45.80;100223.13;5566311;32;34196;-58
2022/01/10 12:23:44;;;;;;;19.08;12.50;;;;;;;7.93;50.10;100221.81;5567900;32;33631;-58
2022/01/10 12:26:47;;;;;;;18.35;11.93;;;;;;;8.19;41.70;100231.41;5568143;32;33635;-58
2022/01/10 12:29:52;;;;;;;15.90;11.52;;;;;;;7.96;55.96;100224.75;5567786;32;33626;-58
2022/01/10 12:32:54;;;;;;;16.55;11.77;;;;;;;7.95;53.64;100227.69;5562555;32;33979;-58
2022/01/10 12:35:57;;;;;;;16.98;11.00;;;;;;;8.04;48.01;100227.94;5556547;32;34397;-58
2022/01/10 12:39:04;;;;;;;15.80;10.75;;;;;;;8.09;54.35;100227.97;5567454;32;33756;-58
2022/01/10 12:42:07;;;;;;;17.12;11.02;;;;;;;7.65;47.77;100237.25;5558813;32;33763;-58
2022/01/10 12:45:10;;;;;;;19.60;11.82;;;;;;;8.42;51.05;100237.31;5566418;32;33702;-58
2022/01/10 12:48:14;;;;;;;17.70;11.00;;;;;;;8.54;48.54;100237.81;5569038;32;34390;-58
2022/01/10 12:51:18;;;;;;;16.25;10.85;;;;;;;8.93;58.64;100246.00;5556306;32;34030;-58
2022/01/10 12:54:36;;;;;;;17.87;12.20;;;;;;;7.90;40.96;100239.16;5568071;32;34898;-58
2022/01/10 12:57:38;;;;;;;19.62;11.05;;;;;;;7.00;41.40;100247.44;5567796;32;33761;-58
2022/01/10 13:00:43;;;;;;;18.80;10.07;;;;;;;7.24;41.89;100255.00;5563243;32;33646;-58
2022/01/10 13:03:53;;;;;;;17.98;11.45;;;;;;;7.32;41.70;100254.50;5548939;32;33799;-58
2022/01/10 13:06:57;;;;;;;18.27;11.07;;;;;;;7.26;41.92;100268.88;5551690;32;34538;-58
2022/01/10 13:10:29;;;;;;;17.85;10.48;;;;;;;6.97;41.03;100273.78;5554288;32;34337;-58
2022/01/10 13:13:32;;;;;;;19.50;12.45;;;;;;;7.05;54.42;100284.78;5566365;32;33211;-58
2022/01/10 13:16:35;;;;;;;27.35;14.52;;;;;;;7.64;53.60;100293.53;5564087;32;32023;-58
2022/01/10 13:19:40;;;;;;;15.60;10.23;;;;;;;7.33;39.91;100293.44;5564594;32;34406;-58
2022/01/10 13:22:43;;;;;;;16.40;10.50;;;;;;;7.32;45.05;100285.69;5569977;32;33359;-58
2022/01/10 13:25:45;;;;;;;15.80;9.82;;;;;;;7.57;40.70;100292.97;5569000;32;33619;-58
2022/01/10 13:28:47;;;;;;;15.52;9.35;;;;;;;7.71;40.24;100294.09;5570300;32;34249;-58
2022/01/10 13:31:50;;;;;;;13.05;8.35;;;;;;;7.28;49.64;100301.41;5562265;32;34337;-58
2022/01/10 13:35:07;;;;;;;15.57;9.23;;;;;;;7.33;40.41;100298.75;5555891;32;34415;-58
2022/01/10 13:38:14;;;;;;;14.10;9.32;;;;;;;7.57;43.43;100301.00;5568440;32;33625;-58
2022/01/10 13:41:17;;;;;;;14.30;9.60;;;;;;;7.27;46.30;100302.47;5569183;32;33828;-58
2022/01/10 13:44:19;;;;;;;13.70;8.85;;;;;;;8.01;47.34;100309.34;5554220;32;33774;-58
2022/01/10 13:47:21;;;;;;;14.00;8.52;;;;;;;7.95;41.39;100307.78;5567200;32;33879;-58
2022/01/10 13:50:30;;;;;;;13.90;9.05;;;;;;;7.98;46.96;100316.06;5570727;32;33947;-58
2022/01/10 13:53:41;;;;;;;12.45;8.68;;;;;;;7.74;40.31;100321.03;5554767;32;33938;-58
2022/01/10 13:56:45;;;;;;;15.35;8.57;;;;;;;7.66;41.67;100320.75;5561532;32;33668;-58
2022/01/10 13:59:47;;;;;;;12.98;8.95;;;;;;;7.70;45.49;100327.97;5568846;32;34401;-58
2022/01/10 14:02:52;;;;;;;14.45;8.75;;;;;;;7.87;49.92;100333.09;5568403;32;33648;-58
2022/01/10 14:06:09;;;;;;;14.35;8.18;;;;;;;8.12;44.34;100329.69;5570371;32;34438;-58
2022/01/10 14:09:11;;;;;;;13.02;8.38;;;;;;;7.85;39.92;100340.56;5570519;32;34313;-58
2022/01/10 14:12:13;;;;;;;13.38;8.48;;;;;;;7.79;53.21;100352.28;5569512;32;34405;-58
2022/01/10 14:15:27;;;;;;;15.02;9.35;;;;;;;7.86;40.10;100352.06;5570165;32;33012;-58
2022/01/10 14:18:30;;;;;;;13.23;8.00;;;;;;;7.84;40.03;100357.62;5568393;32;33611;-58
2022/01/10 14:21:33;;;;;;;11.35;7.93;;;;;;;7.93;48.62;100356.06;5560018;32;33643;-58
2022/01/10 14:24:36;;;;;;;12.82;7.95;;;;;;;8.21;53.27;100364.66;5558510;32;33320;-58
2022/01/10 14:27:38;;;;;;;17.20;8.82;;;;;;;8.33;41.06;100362.56;5569098;32;33663;-58
2022/01/10 14:30:44;;;;;;;10.55;7.53;;;;;;;8.07;41.97;100374.25;5570202;32;33804;-58
2022/01/10 14:33:49;;;;;;;13.27;8.27;;;;;;;8.49;40.86;100376.75;5569590;32;34454;-58
2022/01/10 14:36:51;;;;;;;14.07;9.98;;;;;;;8.68;48.15;100383.19;5569369;32;33823;-57
2022/01/10 14:39:53;;;;;;;13.20;9.57;;;;;;;8.72;43.96;100369.28;5569356;32;34298;-58
2022/01/10 14:42:56;;;;;;;16.33;8.60;;;;;;;8.24;38.26;100378.31;5569300;32;33941;-58
2022/01/10 14:45:58;;;;;;;11.75;6.50;;;;;;;8.11;40.74;100381.50;5569125;32;33640;-58
2022/01/10 14:49:04;;;;;;;11.30;7.30;;;;;;;7.90;38.41;100385.94;5568817;32;33628;-58
2022/01/10 14:52:07;;;;;;;10.90;6.87;;;;;;;7.98;44.61;100390.78;5549616;32;34211;-58
2022/01/10 14:55:10;;;;;;;11.55;6.40;;;;;;;7.89;39.80;100402.25;5558604;32;34028;-58
2022/01/10 14:58:12;;;;;;;12.05;6.50;;;;;;;7.87;38.72;100407.81;5569373;32;34300;-58
2022/01/10 15:01:16;;;;;;;9.98;6.25;;;;;;;7.66;40.73;100406.16;5563729;32;34333;-58
2022/01/10 15:04:19;;;;;;;9.43;6.20;;;;;;;7.89;41.56;100419.06;5569356;32;33634;-58
2022/01/10 15:07:21;;;;;;;9.73;5.15;;;;;;;7.70;38.71;100421.38;5569720;32;33716;-58
2022/01/10 15:10:23;;;;;;;7.20;4.95;;;;;;;7.87;40.37;100429.19;5568945;32;33678;-58
2022/01/10 15:13:26;;;;;;;9.57;5.93;;;;;;;7.68;38.63;100422.69;5560572;32;33737;-58
2022/01/10 15:16:28;;;;;;;8.23;5.43;;;;;;;7.53;39.19;100428.75;5552938;32;34363;-58
2022/01/10 15:19:30;;;;;;;14.13;5.90;;;;;;;7.52;39.65;100441.28;5555743;32;33921;-58
2022/01/10 15:22:32;;;;;;;12.20;5.80;;;;;;;7.40;46.85;100439.88;5566458;32;33682;-58
2022/01/10 15:25:35;;;;;;;9.25;5.45;;;;;;;7.71;39.56;100452.31;5560772;32;33762;-58
2022/01/10 15:28:38;;;;;;;8.63;5.87;;;;;;;7.54;39.38;100457.81;5558063;32;33607;-58
2022/01/10 15:31:41;;;;;;;14.73;6.55;;;;;;;7.55;39.48;100472.00;5568016;32;33181;-58
2022/01/10 15:34:44;;;;;;;15.88;9.15;;;;;;;7.42;40.50;100475.09;5569482;32;33256;-58
2022/01/10 15:37:46;;;;;;;21.75;11.12;;;;;;;7.19;49.58;100486.94;5562327;32;33740;-58
2022/01/10 15:40:48;;;;;;;21.40;13.20;;;;;;;7.15;42.90;100491.16;5569041;32;33894;-58
2022/01/10 15:43:59;;;;;;;27.10;13.82;;;;;;;7.06;45.19;100490.81;5567403;32;34425;-57
2022/01/10 15:47:02;;;;;;;22.52;14.87;;;;;;;6.97;46.20;100495.81;5568045;32;34268;-58
2022/01/10 15:50:09;;;;;;;24.10;15.35;;;;;;;7.00;48.31;100510.50;5568747;32;33547;-58
2022/01/10 15:53:11;;;;;;;22.75;15.85;;;;;;;6.90;49.08;100508.53;5567500;32;33367;-58
2022/01/10 15:56:13;;;;;;;25.12;16.40;;;;;;;6.58;49.08;100517.25;5568330;32;33943;-58
2022/01/10 15:59:15;;;;;;;25.02;15.88;;;;;;;6.47;49.00;100530.72;5567628;32;33514;-58
2022/01/10 16:02:18;;;;;;;22.65;14.93;;;;;;;6.53;49.91;100527.88;5558270;32;34321;-58
2022/01/10 16:05:20;;;;;;;23.55;15.48;;;;;;;6.73;56.53;100542.47;5569198;32;33795;-58
2022/01/10 16:08:23;;;;;;;24.85;15.05;;;;;;;6.48;48.43;100538.47;5568978;32;33661;-58
2022/01/10 16:11:25;;;;;;;23.95;15.80;;;;;;;6.38;51.94;100545.53;5568614;32;33781;-58
2022/01/10 16:14:28;;;;;;;22.05;13.45;;;;;;;6.14;49.63;100544.97;5558719;32;33900;-58
2022/01/10 16:17:31;;;;;;;23.20;14.20;;;;;;;6.25;54.59;100560.81;5569455;32;33610;-58
2022/01/10 16:20:33;;;;;;;21.95;14.20;;;;;;;6.18;49.89;100562.06;5568932;32;33611;-58
2022/01/10 16:23:37;;;;;;;22.02;13.75;;;;;;;6.02;49.80;100567.16;5569639;32;33794;-58
2022/01/10 16:26:41;;;;;;;24.63;13.68;;;;;;;6.00;60.54;100571.12;5566188;32;33790;-58
2022/01/10 16:29:45;;;;;;;21.92;13.27;;;;;;;6.05;49.42;100584.50;5568929;32;33775;-58
2022/01/10 16:32:47;;;;;;;19.23;12.43;;;;;;;6.08;49.25;100582.16;5551007;32;33694;-58
2022/01/10 16:35:50;;;;;;;18.48;11.93;;;;;;;6.29;56.30;100590.41;5557695;32;33751;-58
2022/01/10 16:38:53;;;;;;;21.45;12.82;;;;;;;6.09;49.67;100593.59;5567745;32;34264;-58
2022/01/10 16:41:56;;;;;;;19.15;11.82;;;;;;;6.01;50.25;100594.84;5548995;32;33850;-57
2022/01/10 16:44:58;;;;;;;15.95;11.57;;;;;;;5.98;51.06;100603.31;5557756;32;33872;-58
2022/01/10 16:48:01;;;;;;;15.75;10.98;;;;;;;5.97;49.93;100609.69;5558179;32;34644;-58
2022/01/10 16:51:05;;;;;;;18.27;11.32;;;;;;;6.07;48.91;100612.50;5555990;32;33724;-58
